Time;durP1;ratioP1;P1;durP2;ratioP2;P2;SDS_P1;SDS_P2;PMS_P1;PMS_P2;Temp;Humidity;BMP_temperature;BMP_pressure;BME280_temperature;BME280_humidity;BME280_pressure;Samples;Min_cycle;Max_cycle;Signal;HPM_P1;HPM_P2
2022/10/18 00:01:10;;;;;;;;;5.50;5.50;;;;;21.55;58.60;101910.44;5038375;28;45327;-61
2022/10/18 00:03:36;;;;;;;;;5.50;5.50;;;;;21.54;58.54;101909.59;5038800;28;45253;-61
2022/10/18 00:06:03;;;;;;;;;5.50;5.50;;;;;21.54;58.77;101904.34;5037876;28;46224;-60
2022/10/18 00:08:28;;;;;;;;;5.50;5.50;;;;;21.53;58.67;101902.63;5038360;28;45706;-62
2022/10/18 00:10:54;;;;;;;;;5.75;5.75;;;;;21.54;58.87;101914.88;5037123;28;45418;-60
2022/10/18 00:13:19;;;;;;;;;6.50;6.00;;;;;21.53;58.82;101913.16;5041430;28;45417;-60
2022/10/18 00:15:49;;;;;;;;;5.50;4.00;;;;;21.54;58.87;101920.16;5046340;28;45472;-60
2022/10/18 00:18:14;;;;;;;;;5.25;5.25;;;;;21.53;58.87;101918.44;5044537;28;45882;-60
2022/10/18 00:20:39;;;;;;;;;6.00;6.00;;;;;21.54;58.57;101922.81;5056290;28;45331;-60
2022/10/18 00:23:05;;;;;;;;;5.00;5.00;;;;;21.54;58.74;101930.72;5048508;28;53828;-60
2022/10/18 00:25:30;;;;;;;;;5.00;4.50;;;;;21.53;58.76;101923.72;5060243;28;65168;-62
2022/10/18 00:27:55;;;;;;;;;4.00;4.00;;;;;21.54;58.65;101930.72;5038572;28;46310;-61
2022/10/18 00:30:20;;;;;;;;;6.00;6.00;;;;;21.53;58.76;101931.63;5037054;28;55676;-60
2022/10/18 00:32:46;;;;;;;;;4.00;4.00;;;;;21.54;58.86;101941.25;5036565;28;52816;-59
2022/10/18 00:35:11;;;;;;;;;5.50;5.00;;;;;21.54;58.85;101941.25;5036657;28;47200;-61
2022/10/18 00:37:36;;;;;;;;;4.00;4.00;;;;;21.53;58.72;101931.63;5039472;28;45421;-59
2022/10/18 00:40:03;;;;;;;;;6.33;6.00;;;;;21.53;58.88;101923.72;5044727;28;58042;-59
2022/10/18 00:42:34;;;;;;;;;5.00;5.00;;;;;21.52;58.86;101924.63;5063123;28;45481;-60
2022/10/18 00:45:13;;;;;;;;;5.00;5.00;;;;;21.52;59.10;101919.38;5066460;28;46161;-61
2022/10/18 00:47:39;;;;;;;;;5.00;5.00;;;;;21.54;58.91;101929.84;5054177;28;45307;-62
2022/10/18 00:50:07;;;;;;;;;4.75;4.75;;;;;21.53;59.03;101923.72;5040058;28;45288;-60
2022/10/18 00:52:38;;;;;;;;;7.50;4.75;;;;;21.52;59.01;101926.41;5039392;28;45256;-61
2022/10/18 00:55:04;;;;;;;;;6.00;6.00;;;;;21.52;59.00;101943.09;5038134;28;46098;-61
2022/10/18 00:57:30;;;;;;;;;4.75;4.00;;;;;21.54;58.80;101945.66;5037424;28;45236;-61
2022/10/18 00:59:56;;;;;;;;;3.75;3.75;;;;;21.53;59.04;101938.66;5039276;28;45494;-61
2022/10/18 01:02:22;;;;;;;;;4.00;4.00;;;;;21.53;59.10;101939.53;5036029;28;45342;-61
2022/10/18 01:04:48;;;;;;;;;5.00;4.25;;;;;21.52;59.14;101948.38;5036323;28;46300;-61
2022/10/18 01:07:34;;;;;;;;;5.00;5.00;;;;;21.53;58.88;101949.22;5036030;28;45860;-61
2022/10/18 01:10:20;;;;;;;;;5.75;5.00;;;;;21.53;58.73;101944.81;5037407;28;45539;-62
2022/10/18 01:13:07;;;;;;;;;6.00;3.75;;;;;21.51;58.75;101946.66;5039967;28;45323;-62
2022/10/18 01:16:07;;;;;;;;;6.00;4.00;;;;;21.53;58.96;101954.50;5040184;28;46106;-61
2022/10/18 01:18:40;;;;;;;;;3.00;3.00;;;;;21.51;58.90;101949.31;5036596;28;45882;-60
2022/10/18 01:21:13;;;;;;;;;5.50;4.25;;;;;21.52;59.08;101945.75;5036615;28;45469;-61
2022/10/18 01:23:54;;;;;;;;;6.50;6.00;;;;;21.51;59.18;101949.31;5038101;28;45479;-61
2022/10/18 01:26:39;;;;;;;;;5.00;5.00;;;;;21.52;59.34;101945.75;5051495;28;45898;-60
2022/10/18 01:29:21;;;;;;;;;7.75;4.50;;;;;21.52;59.37;101936.94;5063890;28;45097;-61
2022/10/18 01:31:52;;;;;;;;;5.00;3.50;;;;;21.53;59.16;101938.66;5063231;28;44722;-60
2022/10/18 01:34:19;;;;;;;;;4.50;4.50;;;;;21.53;59.07;101946.59;5064833;28;44756;-60
2022/10/18 01:36:52;;;;;;;;;5.00;5.00;;;;;21.52;59.28;101958.94;5044062;28;46025;-59
2022/10/18 01:39:25;;;;;;;;;6.50;5.50;;;;;21.52;59.21;101956.28;5035729;28;45283;-59
2022/10/18 01:41:53;;;;;;;;;3.75;3.75;;;;;21.53;59.15;101949.22;5044043;28;45161;-60
2022/10/18 01:44:22;;;;;;;;;5.00;5.00;;;;;21.52;59.30;101952.78;5057542;28;45331;-60
2022/10/18 01:46:49;;;;;;;;;5.25;4.00;;;;;21.53;59.30;101957.13;5048093;28;45169;-59
2022/10/18 01:49:15;;;;;;;;;4.00;4.00;;;;;21.53;59.04;101947.47;5057708;28;45168;-58
2022/10/18 01:51:40;;;;;;;;;5.50;5.50;;;;;21.54;58.95;101950.94;5053204;28;45291;-61
2022/10/18 01:54:07;;;;;;;;;5.00;5.00;;;;;21.53;58.96;101943.94;5065104;28;44673;-60
2022/10/18 01:56:40;;;;;;;;;4.00;4.00;;;;;21.53;59.10;101942.19;5064631;28;45270;-60
2022/10/18 01:59:27;;;;;;;;;4.75;4.00;;;;;21.53;58.89;101939.53;5054335;28;45029;-61
2022/10/18 02:02:07;;;;;;;;;5.00;4.50;;;;;21.53;59.04;101944.81;5053497;28;45267;-61
2022/10/18 02:04:41;;;;;;;;;4.75;4.75;;;;;21.52;59.20;101943.09;5037428;28;45406;-61
2022/10/18 02:07:22;;;;;;;;;4.00;4.00;;;;;21.52;59.20;101937.84;5062667;28;45349;-59
2022/10/18 02:09:59;;;;;;;;;5.00;5.00;;;;;21.53;59.16;101936.91;5053671;28;45064;-61
2022/10/18 02:12:28;;;;;;;;;4.00;4.00;;;;;21.53;59.30;101928.13;5037537;28;45200;-61
2022/10/18 02:14:56;;;;;;;;;4.50;4.50;;;;;21.54;59.07;101937.75;5037960;28;45537;-61
2022/10/18 02:17:27;;;;;;;;;4.50;4.50;;;;;21.53;59.08;101938.66;5039532;28;46182;-61
2022/10/18 02:19:54;;;;;;;;;4.25;4.00;;;;;21.53;59.41;101942.19;5036013;28;45832;-61
2022/10/18 02:22:24;;;;;;;;;6.00;4.50;;;;;21.54;59.04;101941.25;5036069;28;45333;-61
2022/10/18 02:24:57;;;;;;;;;4.25;3.75;;;;;21.54;59.10;101943.03;5040210;28;45147;-60
2022/10/18 02:27:23;;;;;;;;;5.00;5.00;;;;;21.54;59.16;101943.91;5043700;28;45432;-60
2022/10/18 02:29:49;;;;;;;;;5.00;4.50;;;;;21.54;59.07;101943.03;5036757;28;45304;-60
2022/10/18 02:32:36;;;;;;;;;6.75;5.00;;;;;21.53;59.07;101944.81;5035090;28;45402;-58
2022/10/18 02:35:15;;;;;;;;;4.25;4.25;;;;;21.54;59.03;101943.03;5040876;28;45774;-59
2022/10/18 02:37:41;;;;;;;;;4.75;4.75;;;;;21.53;59.33;101944.81;5038269;28;46231;-61
2022/10/18 02:40:09;;;;;;;;;3.75;3.75;;;;;21.53;59.14;101955.38;5044306;28;45912;-61
2022/10/18 02:42:56;;;;;;;;;3.00;3.00;;;;;21.53;59.24;101963.28;5043770;28;45256;-62
2022/10/18 02:45:22;;;;;;;;;7.75;6.50;;;;;21.53;59.34;101965.06;5040074;28;45439;-61
2022/10/18 02:47:48;;;;;;;;;4.00;4.00;;;;;21.53;59.09;101965.06;5036126;28;46417;-62
2022/10/18 02:50:13;;;;;;;;;5.75;4.75;;;;;21.52;59.24;101963.34;5034869;28;45327;-61
2022/10/18 02:52:39;;;;;;;;;6.25;6.00;;;;;21.53;58.98;101967.69;5035344;28;45311;-59
2022/10/18 02:55:05;;;;;;;;;5.75;5.25;;;;;21.53;59.16;101973.84;5035467;28;45326;-60
2022/10/18 02:57:31;;;;;;;;;5.50;5.50;;;;;21.53;59.35;101972.97;5035588;28;46964;-58
2022/10/18 02:59:56;;;;;;;;;4.00;4.00;;;;;21.53;59.30;101976.47;5034928;28;49529;-59
2022/10/18 03:02:21;;;;;;;;;5.75;5.00;;;;;21.52;59.20;101966.84;5034905;28;45256;-59
2022/10/18 03:04:46;;;;;;;;;4.75;4.75;;;;;21.52;59.16;101969.47;5035982;28;45272;-59
2022/10/18 03:07:12;;;;;;;;;6.00;5.00;;;;;21.51;59.15;101970.41;5038199;28;52260;-59
2022/10/18 03:09:37;;;;;;;;;4.50;4.50;;;;;21.53;59.31;101973.84;5037396;28;45327;-58
2022/10/18 03:12:03;;;;;;;;;4.00;4.00;;;;;21.52;59.15;101969.47;5039100;28;45317;-59
2022/10/18 03:14:28;;;;;;;;;5.50;4.25;;;;;21.51;59.26;101967.75;5056847;28;45157;-59
2022/10/18 03:16:54;;;;;;;;;4.00;4.00;;;;;21.52;58.84;101974.75;5059744;28;45786;-61
2022/10/18 03:19:19;;;;;;;;;4.00;4.00;;;;;21.53;59.50;101979.13;5043058;28;45365;-60
2022/10/18 03:21:44;;;;;;;;;5.75;5.25;;;;;21.52;59.18;101980.03;5038033;28;45304;-61
2022/10/18 03:24:10;;;;;;;;;6.00;5.00;;;;;21.52;59.35;101990.59;5037716;28;45499;-61
2022/10/18 03:26:35;;;;;;;;;4.75;4.75;;;;;21.52;59.21;101998.50;5037098;28;45705;-61
2022/10/18 03:29:00;;;;;;;;;5.50;5.00;;;;;21.52;59.41;101998.50;5038601;28;45432;-60
2022/10/18 03:31:26;;;;;;;;;5.50;5.00;;;;;21.52;59.48;101998.50;5037988;28;45408;-61
2022/10/18 03:33:51;;;;;;;;;4.50;4.50;;;;;21.51;59.11;101996.78;5038304;28;45897;-61
2022/10/18 03:36:16;;;;;;;;;4.75;4.00;;;;;21.52;59.32;102000.25;5037413;28;49735;-60
2022/10/18 03:38:42;;;;;;;;;5.00;4.50;;;;;21.52;59.44;102006.41;5038062;28;45612;-61
2022/10/18 03:41:07;;;;;;;;;4.50;4.25;;;;;21.51;59.63;101999.41;5036626;28;45315;-61
2022/10/18 03:43:33;;;;;;;;;5.00;5.00;;;;;21.51;59.38;101999.41;5038370;28;45441;-60
2022/10/18 03:45:58;;;;;;;;;5.25;5.25;;;;;21.51;59.31;101994.16;5038156;28;46171;-62
2022/10/18 03:48:24;;;;;;;;;4.50;4.50;;;;;21.50;59.25;102002.97;5037845;28;45323;-60
2022/10/18 03:50:49;;;;;;;;;6.25;4.75;;;;;21.51;59.37;102009.97;5038188;28;45331;-62
2022/10/18 03:53:14;;;;;;;;;4.25;4.00;;;;;21.52;59.22;102009.06;5038073;28;45455;-62
2022/10/18 03:55:39;;;;;;;;;5.75;4.00;;;;;21.52;59.23;102005.53;5038123;28;61120;-61
2022/10/18 03:58:05;;;;;;;;;5.50;5.50;;;;;21.52;59.22;102002.91;5042618;28;45373;-61
2022/10/18 04:00:30;;;;;;;;;4.25;4.25;;;;;21.52;59.29;102008.16;5061482;28;45915;-60
2022/10/18 04:02:56;;;;;;;;;6.00;5.00;;;;;21.52;59.15;102016.09;5047549;28;45457;-62
2022/10/18 04:05:23;;;;;;;;;6.00;6.00;;;;;21.52;59.55;102016.09;5037548;28;46008;-62
2022/10/18 04:07:48;;;;;;;;;5.00;5.00;;;;;21.53;59.38;102021.31;5036747;28;45693;-63
2022/10/18 04:10:14;;;;;;;;;5.00;5.00;;;;;21.52;59.28;102022.25;5037669;28;45359;-62
2022/10/18 04:12:39;;;;;;;;;3.75;3.75;;;;;21.52;59.38;102021.38;5038292;28;45231;-61
2022/10/18 04:15:05;;;;;;;;;5.00;5.00;;;;;21.52;59.36;102022.25;5037457;28;46397;-61
2022/10/18 04:17:30;;;;;;;;;6.50;4.00;;;;;21.51;59.30;102020.53;5036944;28;45888;-62
2022/10/18 04:19:56;;;;;;;;;5.50;5.00;;;;;21.52;59.37;102024.88;5037498;28;45345;-61
2022/10/18 04:22:21;;;;;;;;;5.25;5.25;;;;;21.53;59.30;102023.09;5037779;28;45663;-62
2022/10/18 04:24:46;;;;;;;;;4.50;4.50;;;;;21.53;59.32;102023.09;5037612;28;46955;-60
2022/10/18 04:27:11;;;;;;;;;7.25;5.25;;;;;21.52;59.24;102021.38;5037129;28;55025;-60
2022/10/18 04:29:37;;;;;;;;;5.00;5.00;;;;;21.52;59.27;102024.88;5037888;28;52565;-60
2022/10/18 04:32:02;;;;;;;;;7.25;6.00;;;;;21.53;59.37;102020.44;5042951;28;45880;-63
2022/10/18 04:34:27;;;;;;;;;6.00;4.75;;;;;21.52;59.27;102016.97;5047018;28;45374;-63
2022/10/18 04:36:53;;;;;;;;;6.75;5.00;;;;;21.51;59.09;102019.63;5048528;28;44686;-62
2022/10/18 04:39:19;;;;;;;;;9.00;7.00;;;;;21.51;59.12;102015.25;5061623;28;45905;-62
2022/10/18 04:41:44;;;;;;;;;5.50;4.00;;;;;21.52;59.29;102011.69;5057571;28;45329;-60
2022/10/18 04:44:09;;;;;;;;;4.00;4.00;;;;;21.55;59.12;102022.09;5062727;28;47076;-62
2022/10/18 04:46:35;;;;;;;;;7.25;6.25;;;;;21.56;58.94;102023.81;5043595;28;45240;-63
2022/10/18 04:49:00;;;;;;;;;4.75;4.75;;;;;21.57;59.41;102024.69;5038105;28;45358;-73
2022/10/18 04:51:27;;;;;;;;;10.25;7.00;;;;;21.59;59.25;102023.72;5037433;28;45531;-59
2022/10/18 04:53:52;;;;;;;;;6.25;6.25;;;;;21.58;59.27;102024.63;5037442;28;45409;-60
2022/10/18 04:56:18;;;;;;;;;13.50;8.00;;;;;21.61;59.35;102027.16;5020418;28;49101;-64
2022/10/18 04:58:43;;;;;;;;;9.00;8.25;;;;;21.60;59.89;102025.44;5046364;28;44763;-60
2022/10/18 05:01:09;;;;;;;;;8.25;7.75;;;;;21.60;59.79;102036.00;5046460;28;45283;-59
2022/10/18 05:03:34;;;;;;;;;8.00;8.00;;;;;21.57;59.60;102033.44;5015510;28;46258;-60
2022/10/18 05:05:59;;;;;;;;;11.00;8.50;;;;;21.59;59.84;102041.34;5017161;28;45465;-59
2022/10/18 05:08:25;;;;;;;;;7.25;7.00;;;;;21.57;59.78;102035.25;5017347;28;45287;-59
2022/10/18 05:10:50;;;;;;;;;7.50;7.25;;;;;21.57;59.92;102043.16;5017541;28;45545;-58
2022/10/18 05:13:16;;;;;;;;;7.50;6.00;;;;;21.55;59.96;102042.34;5016676;28;46263;-59
2022/10/18 05:15:41;;;;;;;;;7.50;7.50;;;;;21.53;59.99;102038.91;5016315;28;45388;-59
2022/10/18 05:18:06;;;;;;;;;11.25;9.00;;;;;21.53;60.09;102034.50;5016451;28;45310;-59
2022/10/18 05:20:32;;;;;;;;;10.25;9.50;;;;;21.52;60.03;102038.06;5017623;28;45497;-59
2022/10/18 05:22:57;;;;;;;;;11.00;8.25;;;;;21.51;60.26;102036.34;5016941;28;45344;-60
2022/10/18 05:25:22;;;;;;;;;10.25;8.00;;;;;21.50;60.40;102037.25;5016319;28;45418;-60
2022/10/18 05:27:48;;;;;;;;;10.50;7.25;;;;;21.51;59.96;102041.63;5016390;28;45414;-60
2022/10/18 05:30:13;;;;;;;;;8.75;7.50;;;;;21.49;59.91;102032.91;5016443;28;45525;-59
2022/10/18 05:32:39;;;;;;;;;8.25;8.25;;;;;21.50;60.11;102036.41;5015979;28;46699;-58
2022/10/18 05:35:04;;;;;;;;;8.00;8.00;;;;;21.49;59.88;102038.19;5016119;28;45753;-59
2022/10/18 05:37:30;;;;;;;;;12.00;8.25;;;;;21.49;59.95;102040.81;5018865;28;45398;-59
2022/10/18 05:39:55;;;;;;;;;9.00;8.75;;;;;21.49;60.26;102035.53;5020668;28;45972;-60
2022/10/18 05:42:20;;;;;;;;;10.25;7.75;;;;;21.49;60.29;102038.19;5034331;28;45690;-60
2022/10/18 05:44:46;;;;;;;;;9.00;9.00;;;;;21.47;60.18;102029.47;5020338;28;45327;-58
2022/10/18 05:47:11;;;;;;;;;14.75;10.25;;;;;21.48;59.90;102036.47;5024361;28;45316;-58
2022/10/18 05:49:36;;;;;;;;;8.75;7.50;;;;;21.47;59.96;102034.75;5026841;28;45323;-60
2022/10/18 05:52:02;;;;;;;;;11.00;10.25;;;;;21.46;60.11;102038.28;5030084;28;54728;-60
2022/10/18 05:54:27;;;;;;;;;9.00;8.00;;;;;21.46;60.08;102044.44;5018094;28;45298;-59
2022/10/18 05:56:52;;;;;;;;;9.75;9.00;;;;;21.45;60.05;102044.50;5018686;28;47357;-60
2022/10/18 05:59:17;;;;;;;;;9.00;9.00;;;;;21.42;60.27;102042.00;5017317;28;45306;-59
2022/10/18 06:01:43;;;;;;;;;10.75;10.00;;;;;21.44;60.45;102048.06;5016786;28;46461;-59
2022/10/18 06:04:09;;;;;;;;;7.00;6.00;;;;;21.45;60.25;102061.19;5017188;28;45794;-59
2022/10/18 06:06:35;;;;;;;;;9.50;9.50;;;;;21.44;60.18;102048.91;5020031;28;45303;-59
2022/10/18 06:09:02;;;;;;;;;5.75;5.75;;;;;21.45;60.28;102057.69;5037437;28;44896;-59
2022/10/18 06:11:28;;;;;;;;;10.00;9.25;;;;;21.45;60.28;102062.94;5025165;28;45337;-60
2022/10/18 06:13:53;;;;;;;;;10.00;9.00;;;;;21.44;60.20;102063.91;5016694;28;45457;-60
2022/10/18 06:16:20;;;;;;;;;3.75;3.75;;;;;21.44;60.08;102063.91;5016110;28;45394;-60
2022/10/18 06:18:48;;;;;;;;;11.00;9.50;;;;;21.44;60.17;102066.53;5016478;28;45326;-60
2022/10/18 06:21:13;;;;;;;;;12.00;9.00;;;;;21.42;59.87;102071.84;5019798;28;46317;-60
2022/10/18 06:23:39;;;;;;;;;10.50;8.75;;;;;21.38;59.83;102067.63;5020965;28;45289;-59
2022/10/18 06:26:07;;;;;;;;;10.50;9.50;;;;;21.42;60.25;102077.13;5033203;28;45229;-59
2022/10/18 06:28:34;;;;;;;;;8.00;8.00;;;;;21.41;60.06;102071.94;5021192;28;45460;-60
2022/10/18 06:31:00;;;;;;;;;9.50;6.50;;;;;21.40;60.21;102076.31;5017814;28;45293;-60
2022/10/18 06:33:25;;;;;;;;;11.50;10.25;;;;;21.40;60.22;102078.13;5015967;28;45327;-60
2022/10/18 06:35:58;;;;;;;;;8.75;8.75;;;;;21.40;60.33;102073.69;5016099;28;45704;-60
2022/10/18 06:38:24;;;;;;;;;8.00;8.00;;;;;21.40;60.21;102076.31;5027523;28;45259;-59
2022/10/18 06:40:50;;;;;;;;;9.25;8.25;;;;;21.39;60.42;102077.25;5034430;28;47191;-59
2022/10/18 06:43:15;;;;;;;;;10.50;8.25;;;;;21.39;60.08;102081.66;5035122;28;45909;-59
2022/10/18 06:45:40;;;;;;;;;11.75;8.25;;;;;21.39;59.88;102079.88;5035628;28;45514;-60
2022/10/18 06:48:06;;;;;;;;;8.75;6.00;;;;;21.38;59.96;102080.81;5035149;28;45358;-59
2022/10/18 06:50:31;;;;;;;;;8.25;7.75;;;;;21.39;59.90;102085.16;5022325;28;45357;-60
2022/10/18 06:52:57;;;;;;;;;9.50;8.00;;;;;21.39;60.03;102086.94;5015996;28;45283;-59
2022/10/18 06:55:22;;;;;;;;;5.50;5.25;;;;;21.41;59.85;102087.75;5027838;28;45383;-60
2022/10/18 06:57:47;;;;;;;;;8.75;8.00;;;;;21.40;60.16;102091.31;5040546;28;45341;-60
2022/10/18 07:00:13;;;;;;;;;8.75;7.25;;;;;21.40;60.00;102097.41;5036632;28;54338;-59
2022/10/18 07:02:40;;;;;;;;;9.50;8.50;;;;;21.40;59.79;102102.69;5017513;28;45623;-60
2022/10/18 07:05:06;;;;;;;;;7.00;7.00;;;;;21.40;59.80;102100.06;5017173;28;45426;-60
2022/10/18 07:07:31;;;;;;;;;5.50;5.00;;;;;21.39;59.73;102103.63;5015758;28;45304;-59
2022/10/18 07:09:57;;;;;;;;;6.75;6.25;;;;;21.39;59.73;102098.34;5015404;28;51437;-59
2022/10/18 07:12:22;;;;;;;;;6.00;6.00;;;;;21.39;59.72;102105.41;5015241;28;45429;-59
2022/10/18 07:14:47;;;;;;;;;9.50;7.00;;;;;21.38;59.87;102108.97;5015374;28;45472;-58
2022/10/18 07:17:13;;;;;;;;;5.00;5.00;;;;;21.38;59.59;102106.31;5014837;28;45280;-58
2022/10/18 07:19:38;;;;;;;;;7.75;7.75;;;;;21.36;59.78;102103.75;5015658;28;45376;-59
2022/10/18 07:22:03;;;;;;;;;7.00;6.00;;;;;21.37;59.84;102113.38;5014022;28;45458;-58
2022/10/18 07:24:29;;;;;;;;;7.00;7.00;;;;;21.37;59.91;102117.78;5022893;28;45350;-58
2022/10/18 07:26:54;;;;;;;;;10.50;7.25;;;;;21.36;59.71;102116.94;5035163;28;45252;-61
2022/10/18 07:29:19;;;;;;;;;5.25;5.25;;;;;21.37;59.78;102117.78;5034527;28;46342;-60
2022/10/18 07:31:44;;;;;;;;;8.00;6.25;;;;;21.38;59.72;102116.88;5034538;28;45859;-58
2022/10/18 07:34:13;;;;;;;;;5.75;4.25;;;;;21.36;59.50;102116.94;5034332;28;52065;-60
2022/10/18 07:36:39;;;;;;;;;6.25;6.25;;;;;21.37;59.52;102121.31;5035022;28;45354;-57
2022/10/18 07:39:05;;;;;;;;;6.25;6.25;;;;;21.37;59.58;102128.34;5034743;28;45375;-56
2022/10/18 07:41:32;;;;;;;;;5.00;2.00;;;;;21.37;59.71;102129.22;5034661;28;45305;-59
2022/10/18 07:43:58;;;;;;;;;6.75;5.75;;;;;21.38;59.79;102125.66;5034716;28;45467;-61
2022/10/18 07:46:23;;;;;;;;;8.00;6.00;;;;;21.38;59.53;102125.66;5038250;28;45423;-58
2022/10/18 07:48:49;;;;;;;;;6.00;4.50;;;;;21.41;59.52;102132.59;5054404;28;46497;-56
2022/10/18 07:51:15;;;;;;;;;6.25;6.25;;;;;21.41;59.60;102140.50;5059734;28;44980;-59
2022/10/18 07:53:40;;;;;;;;;5.00;5.00;;;;;21.42;59.66;102139.59;5049148;28;45319;-59
2022/10/18 07:56:10;;;;;;;;;8.00;6.00;;;;;21.42;59.42;102152.78;5038677;28;45194;-61
2022/10/18 07:58:36;;;;;;;;;5.25;5.25;;;;;21.43;59.27;102144.78;5038589;28;46205;-57
2022/10/18 08:01:06;;;;;;;;;7.25;5.50;;;;;21.45;59.39;102157.91;5037253;28;45443;-57
2022/10/18 08:03:32;;;;;;;;;7.00;5.00;;;;;21.46;59.39;102159.63;5037908;28;45218;-59
2022/10/18 08:05:57;;;;;;;;;5.75;5.50;;;;;21.46;59.65;102160.50;5038162;28;45209;-56
2022/10/18 08:08:24;;;;;;;;;6.00;5.00;;;;;21.47;59.31;102166.63;5037538;28;45324;-57
2022/10/18 08:10:49;;;;;;;;;6.25;6.00;;;;;21.48;59.44;102163.06;5038232;28;45650;-56
2022/10/18 08:13:15;;;;;;;;;5.00;4.00;;;;;21.48;59.44;102163.06;5038585;28;45299;-59
2022/10/18 08:15:41;;;;;;;;;5.00;5.00;;;;;21.48;59.31;102163.06;5044138;28;45509;-55
2022/10/18 08:18:06;;;;;;;;;9.00;5.25;;;;;21.49;59.17;102177.13;5045320;28;47185;-59
2022/10/18 08:20:32;;;;;;;;;6.00;6.00;;;;;21.50;59.21;102177.06;5062250;28;44725;-56
2022/10/18 08:22:58;;;;;;;;;6.25;5.00;;;;;21.50;59.30;102177.06;5050715;28;45345;-60
2022/10/18 08:25:23;;;;;;;;;5.75;4.25;;;;;21.51;59.30;102178.78;5042662;28;45356;-61
2022/10/18 08:27:48;;;;;;;;;5.00;5.00;;;;;21.51;59.25;102184.06;5037392;28;56594;-62
2022/10/18 08:30:14;;;;;;;;;4.75;4.75;;;;;21.50;59.11;102190.25;5037345;28;45437;-57
2022/10/18 08:32:39;;;;;;;;;3.25;3.25;;;;;21.51;58.89;102191.09;5037885;28;45499;-52
2022/10/18 10:20:02;;;;;;;;;4.00;3.00;;;;;21.47;58.53;102177.19;5097242;27;45542;-55
2022/10/18 10:22:37;;;;;;;;;2.50;2.50;;;;;21.48;58.16;102186.81;5073087;27;45795;-42
2022/10/18 10:25:04;;;;;;;;;3.75;3.00;;;;;21.50;58.37;102181.50;5106796;27;46146;-41
2022/10/18 10:27:44;;;;;;;;;2.75;2.75;;;;;21.51;58.20;102185.81;5098311;27;45384;-46
2022/10/18 10:30:22;;;;;;;;;3.00;3.00;;;;;21.52;58.34;102191.06;5097973;27;45250;-42
2022/10/18 10:32:52;;;;;;;;;3.25;3.00;;;;;21.53;58.46;102190.16;5097833;27;45535;-43
2022/10/18 10:35:23;;;;;;;;;2.75;2.75;;;;;21.54;58.29;102183.97;5098820;27;47118;-45
2022/10/18 10:37:53;;;;;;;;;3.00;3.00;;;;;21.55;58.34;102193.56;5099609;27;45432;-46
2022/10/18 10:40:21;;;;;;;;;5.50;1.75;;;;;21.54;58.12;102191.88;5097898;27;45235;-43
2022/10/18 10:43:04;;;;;;;;;5.00;3.00;;;;;21.57;58.28;102190.88;5097756;27;45905;-41
2022/10/18 10:45:35;;;;;;;;;3.00;3.00;;;;;21.58;58.19;102184.69;5097097;27;46248;-42
2022/10/18 10:48:05;;;;;;;;;2.50;2.50;;;;;21.58;58.07;102184.69;5097863;27;45741;-41
2022/10/18 10:50:30;;;;;;;;;3.00;2.00;;;;;21.58;58.14;102177.63;5098065;27;45553;-41
2022/10/18 10:52:56;;;;;;;;;3.50;3.50;;;;;21.59;58.30;102181.16;5098229;27;45540;-42
2022/10/18 10:55:27;;;;;;;;;3.00;3.00;;;;;21.61;58.49;102179.31;5096314;27;45444;-44
2022/10/18 10:57:55;;;;;;;;;2.00;2.00;;;;;21.61;58.25;102176.66;5098560;27;45344;-43
2022/10/18 11:00:56;;;;;;;;;2.00;2.00;;;;;21.62;58.11;102176.63;5108091;27;45649;-39
2022/10/18 11:03:22;;;;;;;;;2.00;2.00;;;;;21.62;58.13;102173.13;5020506;28;45387;-44
2022/10/18 11:05:54;;;;;;;;;3.00;2.00;;;;;21.62;58.07;102173.13;5085163;27;46672;-42
2022/10/18 11:08:26;;;;;;;;;2.50;2.50;;;;;21.61;58.08;102167.00;5099765;27;45430;-45
2022/10/18 11:10:59;;;;;;;;;2.00;2.00;;;;;21.62;58.26;102165.19;5101880;27;45426;-51
2022/10/18 11:13:44;;;;;;;;;2.00;2.00;;;;;21.61;57.95;102171.41;5104278;27;45263;-44
2022/10/18 11:16:21;;;;;;;;;2.00;2.00;;;;;21.59;57.96;102168.81;5108571;27;47195;-45
2022/10/18 11:18:51;;;;;;;;;3.00;3.00;;;;;21.59;57.83;102176.75;5114735;27;45683;-51
2022/10/18 11:21:28;;;;;;;;;2.00;2.00;;;;;21.59;57.96;102160.06;5103572;27;45255;-50
2022/10/18 11:23:54;;;;;;;;;1.75;1.75;;;;;21.55;57.80;102158.41;5102026;27;45335;-50
2022/10/18 11:26:37;;;;;;;;;2.75;2.75;;;;;21.55;58.12;102164.53;5107802;27;46354;-52
2022/10/18 11:29:05;;;;;;;;;2.50;2.00;;;;;21.55;57.94;102154.00;5103879;27;45654;-49
2022/10/18 11:31:34;;;;;;;;;2.25;2.25;;;;;21.55;57.96;102155.78;5109420;27;45517;-45
2022/10/18 11:34:05;;;;;;;;;3.00;3.00;;;;;21.55;58.03;102151.34;5115321;27;45315;-47
2022/10/18 11:36:33;;;;;;;;;2.00;2.00;;;;;21.56;58.08;102147.81;5103712;27;45599;-49
2022/10/18 11:39:05;;;;;;;;;3.00;2.25;;;;;21.58;58.07;102147.75;5103980;27;45874;-47
2022/10/18 11:41:40;;;;;;;;;2.00;2.00;;;;;21.55;58.06;102148.72;5108232;27;45221;-49
2022/10/18 11:44:36;;;;;;;;;2.00;2.00;;;;;21.56;57.95;102145.16;5102993;27;45472;-41
2022/10/18 11:47:12;;;;;;;;;2.25;2.25;;;;;21.55;57.94;102142.59;5100071;27;45398;-44
2022/10/18 11:49:46;;;;;;;;;2.00;2.00;;;;;21.56;57.99;102145.16;5099741;27;45423;-48
2022/10/18 11:52:30;;;;;;;;;2.75;1.50;;;;;21.55;58.21;102148.72;5099671;27;45255;-47
2022/10/18 11:55:22;;;;;;;;;3.25;3.00;;;;;21.55;58.07;102142.59;5103285;27;45475;-45
2022/10/18 11:58:06;;;;;;;;;3.00;2.00;;;;;21.53;57.97;102134.75;5102493;27;47044;-42
2022/10/18 12:00:43;;;;;;;;;4.00;4.00;;;;;21.54;58.20;102130.31;5099494;27;45359;-52
2022/10/18 12:03:14;;;;;;;;;4.00;4.00;;;;;21.54;58.12;102128.56;5097895;27;45330;-47
2022/10/18 12:05:43;;;;;;;;;3.00;3.00;;;;;21.54;58.25;102128.56;5099148;27;45685;-42
2022/10/18 12:08:19;;;;;;;;;3.00;3.00;;;;;21.52;58.11;102122.47;5097126;27;47048;-46
2022/10/18 12:10:51;;;;;;;;;3.25;3.25;;;;;21.52;58.36;102106.66;5098668;27;45251;-50
2022/10/18 12:13:26;;;;;;;;;5.25;5.25;;;;;21.53;58.38;102095.19;5098486;27;45478;-56
2022/10/18 12:15:53;;;;;;;;;5.00;3.00;;;;;21.53;58.33;102097.81;5103718;27;45435;-51
2022/10/18 12:18:24;;;;;;;;;3.50;3.00;;;;;21.52;58.45;102101.38;5105265;27;46044;-46
2022/10/18 12:20:57;;;;;;;;;4.00;4.00;;;;;21.53;58.28;102097.81;5101942;27;45522;-50
2022/10/18 12:23:28;;;;;;;;;4.00;4.00;;;;;21.53;58.48;102097.81;5102443;27;45245;-50
2022/10/18 12:26:01;;;;;;;;;2.00;2.00;;;;;21.54;58.31;102099.53;5098292;27;45556;-49
2022/10/18 12:29:05;;;;;;;;;5.00;4.00;;;;;21.53;58.60;102092.53;5099244;27;46199;-46
2022/10/18 12:31:37;;;;;;;;;2.50;2.50;;;;;21.54;58.29;102088.13;5099123;27;45408;-44
2022/10/18 12:34:20;;;;;;;;;3.00;3.00;;;;;21.52;58.40;102082.91;5098804;27;45496;-47
2022/10/18 12:37:01;;;;;;;;;3.25;3.25;;;;;21.52;58.63;102085.56;5113837;27;45393;-44
2022/10/18 12:39:33;;;;;;;;;3.75;3.00;;;;;21.51;58.35;102082.94;5109213;27;46204;-47
2022/10/18 12:41:58;;;;;;;;;3.00;3.00;;;;;21.50;58.51;102097.94;5099780;27;45920;-48
2022/10/18 12:44:34;;;;;;;;;4.25;3.50;;;;;21.51;58.61;102098.78;5098680;27;45292;-45
2022/10/18 12:47:04;;;;;;;;;5.00;3.50;;;;;21.50;58.37;102082.09;5102909;27;45720;-52
2022/10/18 12:49:37;;;;;;;;;4.00;4.00;;;;;21.50;58.44;102081.25;5101902;27;46174;-49
2022/10/18 12:52:25;;;;;;;;;4.75;3.00;;;;;21.50;58.79;102087.38;5114167;27;45233;-49
2022/10/18 12:55:08;;;;;;;;;3.50;3.50;;;;;21.50;58.38;102091.81;5106819;27;45275;-46
2022/10/18 12:58:12;;;;;;;;;3.75;3.75;;;;;21.49;58.45;102085.66;5105156;27;45287;-47
2022/10/18 13:00:37;;;;;;;;;3.25;3.25;;;;;21.48;58.60;102078.66;5061866;27;48151;-47
2022/10/18 13:03:08;;;;;;;;;2.00;2.00;;;;;21.49;58.34;102083.03;5106130;27;45919;-44
2022/10/18 13:05:46;;;;;;;;;2.25;2.00;;;;;21.46;58.55;102077.84;5105438;27;45342;-43
2022/10/18 13:08:26;;;;;;;;;1.00;1.00;;;;;21.47;58.32;102082.22;5103926;27;45195;-52
2022/10/18 13:11:07;;;;;;;;;3.25;3.25;;;;;21.46;58.30;102075.22;5099210;27;45477;-51
2022/10/18 13:13:51;;;;;;;;;2.25;2.25;;;;;21.45;58.37;102081.41;5107550;27;45370;-48
2022/10/18 13:16:19;;;;;;;;;1.00;1.00;;;;;21.44;58.60;102082.38;5098744;27;45368;-52
2022/10/18 13:18:53;;;;;;;;;1.00;1.00;;;;;21.43;58.64;102078.00;5100016;27;45180;-47